Time;durP1;ratioP1;P1;durP2;ratioP2;P2;SDS_P1;SDS_P2;PMS_P1;PMS_P2;Temp;Humidity;BMP_temperature;BMP_pressure;BME280_temperature;BME280_humidity;BME280_pressure;Samples;Min_cycle;Max_cycle;Signal;HPM_P1;HPM_P2
2023/05/05 00:01:59;;;;;;;1.95;1.75;;;;;;;;;;5020275;28;20230;-83
2023/05/05 00:04:26;;;;;;;3.85;2.70;;;;;;;;;;5020480;28;20218;-83
2023/05/05 00:06:54;;;;;;;2.13;2.03;;;;;;;;;;5020838;28;20250;-83
2023/05/05 00:09:22;;;;;;;2.10;1.98;;;;;;;;;;5020530;28;20198;-83
2023/05/05 00:11:49;;;;;;;2.00;1.90;;;;;;;;;;5020246;28;20202;-83
2023/05/05 00:14:17;;;;;;;2.00;1.90;;;;;;;;;;5020086;28;20240;-83
2023/05/05 00:16:44;;;;;;;1.70;1.60;;;;;;;;;;5020280;28;20286;-83
2023/05/05 00:19:13;;;;;;;2.88;2.03;;;;;;;;;;5020493;28;20229;-83
2023/05/05 00:21:41;;;;;;;1.85;1.75;;;;;;;;;;5020264;28;20298;-83
2023/05/05 00:24:09;;;;;;;2.10;1.60;;;;;;;;;;5020379;28;20298;-83
2023/05/05 00:26:37;;;;;;;2.30;1.80;;;;;;;;;;5019752;28;20226;-83
2023/05/05 00:29:04;;;;;;;2.10;1.90;;;;;;;;;;5019904;28;20581;-83
2023/05/05 00:31:32;;;;;;;2.22;1.80;;;;;;;;;;5019690;28;20294;-83
2023/05/05 00:33:59;;;;;;;2.38;1.75;;;;;;;;;;5019366;28;20249;-83
2023/05/05 00:36:29;;;;;;;3.45;2.53;;;;;;;;;;5019193;28;20249;-84
2023/05/05 00:38:56;;;;;;;2.47;2.28;;;;;;;;;;5019487;28;20202;-83
2023/05/05 00:41:24;;;;;;;1.80;1.70;;;;;;;;;;5019686;28;20282;-84
2023/05/05 00:43:51;;;;;;;2.28;2.08;;;;;;;;;;5019384;28;20652;-83
2023/05/05 00:46:24;;;;;;;8.23;2.25;;;;;;;;;;5019280;28;20239;-83
2023/05/05 00:48:53;;;;;;;3.17;2.20;;;;;;;;;;5019462;28;20190;-83
2023/05/05 00:51:21;;;;;;;3.10;2.90;;;;;;;;;;5019250;28;20227;-83
2023/05/05 00:53:51;;;;;;;1.80;1.70;;;;;;;;;;5019133;28;20293;-83
2023/05/05 00:56:20;;;;;;;2.28;1.98;;;;;;;;;;5019450;28;20550;-83
2023/05/05 00:58:48;;;;;;;2.10;1.90;;;;;;;;;;5019231;28;20233;-83
2023/05/05 01:01:16;;;;;;;2.30;2.05;;;;;;;;;;5019424;28;20195;-83
2023/05/05 01:03:43;;;;;;;2.25;1.95;;;;;;;;;;5019340;28;20226;-83
2023/05/05 01:06:23;;;;;;;2.28;1.60;;;;;;;;;;5018619;28;20318;-83
2023/05/05 01:09:04;;;;;;;2.03;1.92;;;;;;;;;;5019747;28;20213;-83
2023/05/05 01:11:40;;;;;;;1.70;1.60;;;;;;;;;;5019450;28;20715;-83
2023/05/05 01:14:17;;;;;;;2.50;2.30;;;;;;;;;;5019354;28;20277;-82
2023/05/05 01:16:55;;;;;;;1.60;1.50;;;;;;;;;;5019450;28;20246;-83
2023/05/05 01:19:47;;;;;;;1.70;1.60;;;;;;;;;;5019684;28;20629;-83
2023/05/05 01:22:15;;;;;;;1.73;1.63;;;;;;;;;;5019522;28;20270;-83
2023/05/05 01:25:03;;;;;;;1.70;1.60;;;;;;;;;;5019130;28;20254;-83
2023/05/05 01:27:55;;;;;;;2.13;1.92;;;;;;;;;;5019012;28;20279;-83
2023/05/05 01:30:42;;;;;;;1.70;1.60;;;;;;;;;;5018728;28;20186;-83
2023/05/05 01:33:14;;;;;;;1.70;1.60;;;;;;;;;;5019502;28;20184;-83
2023/05/05 01:35:45;;;;;;;2.00;1.83;;;;;;;;;;5019723;28;20287;-83
2023/05/05 01:38:16;;;;;;;2.08;1.98;;;;;;;;;;5019125;28;20183;-83
2023/05/05 01:40:47;;;;;;;2.22;1.88;;;;;;;;;;5019225;28;20206;-83
2023/05/05 01:43:17;;;;;;;1.80;1.70;;;;;;;;;;5018260;28;20292;-83
2023/05/05 01:45:45;;;;;;;2.30;2.10;;;;;;;;;;5019364;28;20223;-83
2023/05/05 01:48:17;;;;;;;2.17;1.77;;;;;;;;;;5022039;28;20250;-83
2023/05/05 01:50:45;;;;;;;2.33;2.05;;;;;;;;;;5022447;28;20191;-83
2023/05/05 01:53:13;;;;;;;2.50;1.60;;;;;;;;;;5022148;28;20199;-83
2023/05/05 01:55:41;;;;;;;2.95;1.88;;;;;;;;;;5022221;28;20799;-83
2023/05/05 01:58:10;;;;;;;3.28;1.90;;;;;;;;;;5021951;28;20230;-83
2023/05/05 02:00:39;;;;;;;2.80;2.00;;;;;;;;;;5021841;28;20191;-83
2023/05/05 02:03:07;;;;;;;2.53;1.90;;;;;;;;;;5022202;28;20199;-83
2023/05/05 02:05:37;;;;;;;12.95;11.55;;;;;;;;;;5021114;28;20294;-83
2023/05/05 02:08:05;;;;;;;15.23;11.65;;;;;;;;;;5021514;28;20221;-83
2023/05/05 02:10:33;;;;;;;6.32;5.40;;;;;;;;;;5021030;28;20210;-83
2023/05/05 02:13:02;;;;;;;4.03;3.50;;;;;;;;;;5022446;28;20226;-83
2023/05/05 02:15:30;;;;;;;4.55;3.42;;;;;;;;;;5022077;28;20691;-83
2023/05/05 02:17:59;;;;;;;2.40;2.20;;;;;;;;;;5021582;28;20309;-83
2023/05/05 02:20:28;;;;;;;2.10;1.90;;;;;;;;;;5022056;28;20218;-83
2023/05/05 02:22:57;;;;;;;2.35;2.15;;;;;;;;;;5021428;28;20207;-83
2023/05/05 02:25:27;;;;;;;2.40;2.00;;;;;;;;;;5022763;28;20652;-83
2023/05/05 02:27:57;;;;;;;2.65;2.45;;;;;;;;;;5021798;28;20227;-83
2023/05/05 02:30:25;;;;;;;2.38;2.17;;;;;;;;;;5022679;28;20732;-83
2023/05/05 02:32:58;;;;;;;3.20;2.60;;;;;;;;;;5022429;28;20242;-84
2023/05/05 02:35:31;;;;;;;1.70;1.60;;;;;;;;;;5021527;28;20309;-83
2023/05/05 02:38:04;;;;;;;1.63;1.52;;;;;;;;;;5021881;28;20223;-83
2023/05/05 02:40:34;;;;;;;2.00;1.80;;;;;;;;;;5022300;28;20191;-82
2023/05/05 02:43:06;;;;;;;1.50;1.40;;;;;;;;;;5021585;28;20724;-83
2023/05/05 02:45:34;;;;;;;2.22;2.03;;;;;;;;;;5021756;28;20649;-83
2023/05/05 02:48:03;;;;;;;3.33;2.33;;;;;;;;;;5021850;28;20310;-83
2023/05/05 02:50:32;;;;;;;3.15;2.85;;;;;;;;;;5022224;28;20199;-83
2023/05/05 02:53:01;;;;;;;2.38;2.20;;;;;;;;;;5021853;28;20644;-83
2023/05/05 02:55:33;;;;;;;2.83;2.58;;;;;;;;;;5021492;28;20257;-83
2023/05/05 02:58:05;;;;;;;3.20;2.13;;;;;;;;;;5020838;28;20254;-83
2023/05/05 03:00:38;;;;;;;2.55;1.88;;;;;;;;;;5021349;28;20423;-83
2023/05/05 03:03:12;;;;;;;2.13;1.70;;;;;;;;;;5021272;28;20216;-83
2023/05/05 03:05:46;;;;;;;1.50;1.40;;;;;;;;;;5021236;28;20245;-83
2023/05/05 03:08:18;;;;;;;1.90;1.80;;;;;;;;;;5021517;28;20226;-83
2023/05/05 03:10:59;;;;;;;4.55;3.33;;;;;;;;;;5021383;28;20214;-83
2023/05/05 03:13:27;;;;;;;2.40;2.03;;;;;;;;;;5021917;28;20187;-82
2023/05/05 03:15:56;;;;;;;2.42;2.22;;;;;;;;;;5021513;28;20222;-83
2023/05/05 03:18:25;;;;;;;1.95;1.50;;;;;;;;;;5021195;28;20258;-83
2023/05/05 03:20:53;;;;;;;1.98;1.88;;;;;;;;;;5021066;28;20241;-82
2023/05/05 03:23:22;;;;;;;1.88;1.52;;;;;;;;;;5021900;28;20670;-83
2023/05/05 03:25:50;;;;;;;1.80;1.70;;;;;;;;;;5020400;28;20231;-83
2023/05/05 03:28:19;;;;;;;1.60;1.50;;;;;;;;;;5020163;28;20233;-83
2023/05/05 03:30:46;;;;;;;1.92;1.70;;;;;;;;;;5020791;28;20646;-83
2023/05/05 03:33:14;;;;;;;1.92;1.70;;;;;;;;;;5020845;28;20261;-83
2023/05/05 03:35:41;;;;;;;1.80;1.70;;;;;;;;;;5020769;28;20277;-83
2023/05/05 03:38:09;;;;;;;2.50;1.40;;;;;;;;;;5020183;28;20262;-83
2023/05/05 03:40:38;;;;;;;2.38;2.17;;;;;;;;;;5020660;28;20235;-83
2023/05/05 03:43:05;;;;;;;1.98;1.77;;;;;;;;;;5021735;28;20234;-83
2023/05/05 03:45:33;;;;;;;1.52;1.42;;;;;;;;;;5020960;28;20261;-83
2023/05/05 03:48:00;;;;;;;1.88;1.67;;;;;;;;;;5020737;28;20265;-83
2023/05/05 03:50:27;;;;;;;1.63;1.52;;;;;;;;;;5021009;28;20267;-84
2023/05/05 03:52:55;;;;;;;2.10;1.67;;;;;;;;;;5020840;28;20210;-83
2023/05/05 03:55:23;;;;;;;2.10;1.90;;;;;;;;;;5020656;28;20330;-83
2023/05/05 03:57:52;;;;;;;1.80;1.70;;;;;;;;;;5020785;28;20211;-83
2023/05/05 04:00:20;;;;;;;2.00;1.85;;;;;;;;;;5020839;28;20270;-83
2023/05/05 04:02:48;;;;;;;2.05;1.90;;;;;;;;;;5021385;28;20337;-84
2023/05/05 04:05:15;;;;;;;1.92;1.83;;;;;;;;;;5020922;28;20253;-83
2023/05/05 04:07:43;;;;;;;2.03;1.88;;;;;;;;;;5020926;28;20219;-84
2023/05/05 04:10:11;;;;;;;1.77;1.67;;;;;;;;;;5019597;28;20202;-83
2023/05/05 04:12:38;;;;;;;3.08;2.78;;;;;;;;;;5021037;28;20261;-83
2023/05/05 04:15:09;;;;;;;2.42;2.28;;;;;;;;;;5020691;28;20250;-83
2023/05/05 04:17:36;;;;;;;2.50;2.30;;;;;;;;;;5020167;28;20257;-82
2023/05/05 04:20:04;;;;;;;2.47;2.28;;;;;;;;;;5020743;28;20270;-83
2023/05/05 04:22:32;;;;;;;2.30;2.10;;;;;;;;;;5020762;28;20290;-83
2023/05/05 04:25:00;;;;;;;2.03;1.90;;;;;;;;;;5020677;28;20222;-83
2023/05/05 04:27:28;;;;;;;2.45;2.25;;;;;;;;;;5020656;28;20202;-83
2023/05/05 04:29:56;;;;;;;2.20;2.00;;;;;;;;;;5020030;28;20203;-83
2023/05/05 04:32:25;;;;;;;1.92;1.83;;;;;;;;;;5020338;28;20241;-83
2023/05/05 04:34:53;;;;;;;1.95;1.67;;;;;;;;;;5020332;28;20250;-83
2023/05/05 04:37:20;;;;;;;1.90;1.80;;;;;;;;;;5020090;28;20664;-83
2023/05/05 04:39:48;;;;;;;2.03;1.90;;;;;;;;;;5019768;28;20230;-83
2023/05/05 04:42:15;;;;;;;2.70;2.15;;;;;;;;;;5020015;28;20245;-83
2023/05/05 04:44:43;;;;;;;2.20;2.10;;;;;;;;;;5019075;28;20262;-83
2023/05/05 04:47:10;;;;;;;2.83;2.03;;;;;;;;;;5019678;28;20294;-83
2023/05/05 04:49:39;;;;;;;2.58;2.38;;;;;;;;;;5019548;28;20254;-83
2023/05/05 04:52:07;;;;;;;2.13;2.03;;;;;;;;;;5019380;28;20285;-83
2023/05/05 04:54:36;;;;;;;2.30;2.10;;;;;;;;;;5019228;28;20235;-83
2023/05/05 04:57:03;;;;;;;2.17;1.92;;;;;;;;;;5019717;28;20257;-83
2023/05/05 04:59:31;;;;;;;2.28;2.03;;;;;;;;;;5018514;28;20305;-83
2023/05/05 05:01:58;;;;;;;2.00;1.90;;;;;;;;;;5019795;28;20229;-83
2023/05/05 05:04:26;;;;;;;2.00;1.80;;;;;;;;;;5019718;28;20250;-83
2023/05/05 05:06:55;;;;;;;2.47;2.35;;;;;;;;;;5018668;28;20222;-83
2023/05/05 05:09:22;;;;;;;2.50;2.30;;;;;;;;;;5018673;28;20267;-83
2023/05/05 05:11:50;;;;;;;2.47;2.20;;;;;;;;;;5020020;28;20231;-83
2023/05/05 05:14:17;;;;;;;2.50;2.30;;;;;;;;;;5018696;28;20282;-83
2023/05/05 05:16:45;;;;;;;2.47;2.30;;;;;;;;;;5019066;28;20310;-83
2023/05/05 05:19:12;;;;;;;2.72;2.53;;;;;;;;;;5018076;28;20222;-83
2023/05/05 05:21:40;;;;;;;3.30;3.00;;;;;;;;;;5018110;28;20707;-83
2023/05/05 05:24:10;;;;;;;2.63;2.42;;;;;;;;;;5018880;28;20205;-82
2023/05/05 05:26:37;;;;;;;3.33;2.50;;;;;;;;;;5019350;28;20234;-83
2023/05/05 05:29:05;;;;;;;2.22;2.03;;;;;;;;;;5019165;28;20285;-83
2023/05/05 05:31:33;;;;;;;2.28;2.17;;;;;;;;;;5019393;28;20234;-83
2023/05/05 05:34:00;;;;;;;3.63;2.47;;;;;;;;;;5019478;28;20206;-83
2023/05/05 05:36:28;;;;;;;2.95;2.60;;;;;;;;;;5017939;28;20243;-83
2023/05/05 05:38:55;;;;;;;2.80;2.55;;;;;;;;;;5018985;28;20199;-84
2023/05/05 05:41:24;;;;;;;3.30;2.97;;;;;;;;;;5019158;28;20198;-85
2023/05/05 05:43:52;;;;;;;3.08;2.78;;;;;;;;;;5018288;28;20230;-85
2023/05/05 05:46:19;;;;;;;2.67;2.47;;;;;;;;;;5018704;28;20715;-85
2023/05/05 05:48:47;;;;;;;3.97;2.97;;;;;;;;;;5019019;28;20257;-85
2023/05/05 05:51:14;;;;;;;3.97;3.17;;;;;;;;;;5018425;28;20285;-85
2023/05/05 05:53:42;;;;;;;3.70;2.55;;;;;;;;;;5020134;28;20230;-85
2023/05/05 05:56:10;;;;;;;2.38;2.28;;;;;;;;;;5018545;28;20246;-86
2023/05/05 05:58:39;;;;;;;2.50;2.33;;;;;;;;;;5019344;28;20684;-85
2023/05/05 06:01:06;;;;;;;2.47;2.28;;;;;;;;;;5019090;28;20203;-85
2023/05/05 06:03:34;;;;;;;3.13;2.90;;;;;;;;;;5019940;28;20298;-85
2023/05/05 06:06:01;;;;;;;3.47;2.88;;;;;;;;;;5018787;28;20250;-85
2023/05/05 06:08:29;;;;;;;2.70;2.50;;;;;;;;;;5019625;28;20239;-85
2023/05/05 06:10:56;;;;;;;3.28;2.97;;;;;;;;;;5019070;28;20226;-85
2023/05/05 06:13:24;;;;;;;3.65;3.30;;;;;;;;;;5019389;28;20291;-85
2023/05/05 06:15:53;;;;;;;3.70;3.40;;;;;;;;;;5019341;28;20301;-85
2023/05/05 06:18:20;;;;;;;3.33;3.03;;;;;;;;;;5019549;28;20290;-85
2023/05/05 06:20:51;;;;;;;3.55;3.25;;;;;;;;;;5018996;28;20203;-85
2023/05/05 06:23:18;;;;;;;3.08;2.80;;;;;;;;;;5018790;28;20195;-84
2023/05/05 06:25:46;;;;;;;3.10;2.90;;;;;;;;;;5019041;28;20250;-85
2023/05/05 06:28:13;;;;;;;3.55;3.25;;;;;;;;;;5018750;28;20203;-86
2023/05/05 06:30:41;;;;;;;2.80;2.60;;;;;;;;;;5018562;28;20258;-85
2023/05/05 06:33:10;;;;;;;4.00;2.72;;;;;;;;;;5020036;28;20286;-85
2023/05/05 06:35:37;;;;;;;2.88;2.60;;;;;;;;;;5022924;28;20723;-86
2023/05/05 06:38:05;;;;;;;3.35;2.90;;;;;;;;;;5022286;28;20203;-86
2023/05/05 06:40:32;;;;;;;3.10;2.75;;;;;;;;;;5022632;28;20290;-85
2023/05/05 06:43:00;;;;;;;5.97;3.30;;;;;;;;;;5024029;28;20758;-85
2023/05/05 06:45:27;;;;;;;2.80;2.60;;;;;;;;;;5022150;28;20227;-85
2023/05/05 06:47:56;;;;;;;3.40;3.03;;;;;;;;;;5022184;28;20648;-86
2023/05/05 06:50:25;;;;;;;3.10;2.75;;;;;;;;;;5022839;28;20279;-85
2023/05/05 06:52:52;;;;;;;2.75;2.42;;;;;;;;;;5022146;28;20237;-85
2023/05/05 06:55:20;;;;;;;2.50;2.30;;;;;;;;;;5021919;28;20246;-85
2023/05/05 06:57:47;;;;;;;4.55;2.40;;;;;;;;;;5021482;28;20620;-85
2023/05/05 07:00:17;;;;;;;3.20;2.63;;;;;;;;;;5004834;28;20299;-85
2023/05/05 07:02:46;;;;;;;2.40;2.17;;;;;;;;;;5003638;28;20219;-85
2023/05/05 07:05:13;;;;;;;2.22;2.00;;;;;;;;;;5002081;28;20226;-85
2023/05/05 07:07:52;;;;;;;3.95;3.65;;;;;;;;;;5001666;28;20232;-85
2023/05/05 07:10:20;;;;;;;2.45;2.25;;;;;;;;;;5002171;28;20265;-84
2023/05/05 07:12:50;;;;;;;4.25;2.22;;;;;;;;;;5000274;28;20204;-85
2023/05/05 07:15:18;;;;;;;4.43;3.08;;;;;;;;;;5001262;28;20310;-85
2023/05/05 07:17:45;;;;;;;2.63;2.42;;;;;;;;;;5000605;28;20230;-86
2023/05/05 07:20:13;;;;;;;3.65;2.10;;;;;;;;;;4999958;28;20202;-86
2023/05/05 07:22:42;;;;;;;4.80;2.40;;;;;;;;;;4998735;28;20266;-85
2023/05/05 07:25:11;;;;;;;4.82;2.28;;;;;;;;;;4999665;28;20313;-85
2023/05/05 07:27:38;;;;;;;2.13;2.00;;;;;;;;;;4999783;28;20257;-85
2023/05/05 07:30:08;;;;;;;2.63;2.10;;;;;;;;;;4999329;28;20259;-86
2023/05/05 07:32:35;;;;;;;2.72;2.53;;;;;;;;;;4999632;28;20299;-86
2023/05/05 07:35:04;;;;;;;2.33;2.20;;;;;;;;;;4999740;28;20246;-85
2023/05/05 07:37:32;;;;;;;2.90;2.55;;;;;;;;;;4998821;28;20204;-85
2023/05/05 07:40:00;;;;;;;2.40;1.83;;;;;;;;;;5000353;28;20282;-85
2023/05/05 07:42:28;;;;;;;2.20;2.00;;;;;;;;;;5000520;28;20657;-85
2023/05/05 07:44:56;;;;;;;2.50;2.40;;;;;;;;;;5000428;28;20285;-85
2023/05/05 07:47:23;;;;;;;2.50;2.30;;;;;;;;;;4998325;28;20226;-86
2023/05/05 07:49:51;;;;;;;4.18;2.47;;;;;;;;;;5000501;28;20266;-85
2023/05/05 07:52:18;;;;;;;2.45;2.08;;;;;;;;;;5001027;28;20247;-86
2023/05/05 07:54:47;;;;;;;4.85;3.75;;;;;;;;;;5000043;28;20307;-85
2023/05/05 07:57:16;;;;;;;3.40;2.70;;;;;;;;;;5008994;28;20640;-85
2023/05/05 07:59:43;;;;;;;2.30;2.10;;;;;;;;;;5016685;28;20569;-85
2023/05/05 08:02:11;;;;;;;7.05;2.83;;;;;;;;;;5017684;28;20237;-85
2023/05/05 08:04:39;;;;;;;2.72;2.50;;;;;;;;;;5018594;28;20203;-85
2023/05/05 08:07:07;;;;;;;3.35;2.78;;;;;;;;;;5019121;28;20298;-85
2023/05/05 08:09:35;;;;;;;5.40;2.92;;;;;;;;;;5019248;28;20214;-85
2023/05/05 08:12:03;;;;;;;3.35;2.85;;;;;;;;;;5019164;28;20313;-85
2023/05/05 08:14:32;;;;;;;3.15;2.85;;;;;;;;;;5019937;28;20293;-85
2023/05/05 08:16:59;;;;;;;2.40;1.98;;;;;;;;;;5019036;28;20688;-84
2023/05/05 08:19:27;;;;;;;2.20;1.83;;;;;;;;;;5019773;28;20211;-85
2023/05/05 08:21:54;;;;;;;2.40;2.20;;;;;;;;;;5018708;28;20202;-85
2023/05/05 08:24:22;;;;;;;3.70;2.10;;;;;;;;;;5019608;28;20199;-85
2023/05/05 08:26:49;;;;;;;3.22;2.40;;;;;;;;;;5019906;28;20632;-84
2023/05/05 08:29:17;;;;;;;2.97;2.30;;;;;;;;;;5018517;28;20629;-85
2023/05/05 08:31:46;;;;;;;2.65;2.45;;;;;;;;;;5018035;28;20639;-85
2023/05/05 08:34:13;;;;;;;2.25;2.05;;;;;;;;;;5019901;28;20257;-85
2023/05/05 08:36:41;;;;;;;2.03;1.92;;;;;;;;;;5019392;28;20307;-85
2023/05/05 08:39:08;;;;;;;2.40;2.20;;;;;;;;;;5019669;28;20233;-85
2023/05/05 08:41:35;;;;;;;2.65;1.80;;;;;;;;;;5018670;28;20241;-85
2023/05/05 08:44:03;;;;;;;2.30;2.10;;;;;;;;;;5019317;28;20203;-85
2023/05/05 08:46:31;;;;;;;1.42;1.42;;;;;;;;;;5018842;28;20290;-86
2023/05/05 08:49:00;;;;;;;3.22;2.00;;;;;;;;;;5019775;28;20249;-85
2023/05/05 08:51:30;;;;;;;4.65;2.97;;;;;;;;;;5019713;28;20680;-85
2023/05/05 08:53:59;;;;;;;4.30;1.75;;;;;;;;;;5019304;28;20189;-85
2023/05/05 08:56:29;;;;;;;4.03;2.38;;;;;;;;;;5018156;28;20225;-85
2023/05/05 08:58:57;;;;;;;2.67;2.15;;;;;;;;;;5018902;28;20234;-85
2023/05/05 09:01:24;;;;;;;2.38;2.17;;;;;;;;;;5018810;28;20198;-85
2023/05/05 09:03:52;;;;;;;2.70;2.00;;;;;;;;;;5019083;28;20235;-86
2023/05/05 09:06:25;;;;;;;2.50;2.30;;;;;;;;;;5018760;28;20285;-86
2023/05/05 09:08:53;;;;;;;2.00;1.80;;;;;;;;;;5017196;28;20183;-84
2023/05/05 09:11:22;;;;;;;3.22;2.70;;;;;;;;;;5018147;28;20254;-86
2023/05/05 09:13:49;;;;;;;1.75;1.63;;;;;;;;;;5018491;28;20252;-85
2023/05/05 09:16:17;;;;;;;2.88;2.15;;;;;;;;;;5018882;28;20734;-85
2023/05/05 09:18:44;;;;;;;2.28;2.10;;;;;;;;;;5017726;28;20229;-85
2023/05/05 09:21:23;;;;;;;3.10;2.20;;;;;;;;;;5018177;28;20210;-86
2023/05/05 09:24:10;;;;;;;2.67;2.15;;;;;;;;;;5018558;28;20722;-85
2023/05/05 09:26:39;;;;;;;2.38;2.17;;;;;;;;;;5017596;28;20233;-85
2023/05/05 09:29:07;;;;;;;2.50;2.30;;;;;;;;;;5017787;28;20219;-86
2023/05/05 09:31:36;;;;;;;2.42;2.28;;;;;;;;;;5017531;28;20218;-86
2023/05/05 09:34:14;;;;;;;3.00;2.63;;;;;;;;;;5017876;28;20203;-85
2023/05/05 09:36:46;;;;;;;2.55;2.35;;;;;;;;;;5017897;28;20309;-86
2023/05/05 09:39:17;;;;;;;3.70;3.22;;;;;;;;;;5016066;28;20187;-85
2023/05/05 09:41:46;;;;;;;3.47;3.28;;;;;;;;;;5017748;28;20271;-85
2023/05/05 09:44:15;;;;;;;2.75;2.33;;;;;;;;;;5016368;28;20195;-85
2023/05/05 09:46:51;;;;;;;3.35;2.55;;;;;;;;;;5016959;28;20219;-85
2023/05/05 09:49:24;;;;;;;2.95;2.75;;;;;;;;;;5017443;28;20190;-86
2023/05/05 09:51:53;;;;;;;3.13;2.80;;;;;;;;;;5017063;28;20288;-85
2023/05/05 09:54:25;;;;;;;3.33;3.10;;;;;;;;;;5015399;28;20281;-85
2023/05/05 09:56:53;;;;;;;3.50;3.20;;;;;;;;;;5015060;28;20253;-86
2023/05/05 09:59:21;;;;;;;6.68;4.57;;;;;;;;;;5014891;28;20257;-85
2023/05/05 10:01:49;;;;;;;3.45;3.13;;;;;;;;;;5015863;28;20195;-85
2023/05/05 10:04:27;;;;;;;4.53;4.10;;;;;;;;;;5015723;28;20209;-85
2023/05/05 10:06:57;;;;;;;5.47;5.07;;;;;;;;;;5017286;28;20212;-86
2023/05/05 10:09:25;;;;;;;5.78;5.28;;;;;;;;;;5018044;28;20213;-86
2023/05/05 10:11:53;;;;;;;5.28;4.88;;;;;;;;;;5018709;28;20223;-86
2023/05/05 10:14:21;;;;;;;4.90;4.50;;;;;;;;;;5018493;28;20289;-86
2023/05/05 10:16:51;;;;;;;5.88;5.38;;;;;;;;;;5017430;28;20293;-86
2023/05/05 10:19:21;;;;;;;5.32;4.47;;;;;;;;;;5018044;28;20218;-86
2023/05/05 10:21:51;;;;;;;5.60;4.10;;;;;;;;;;5019268;28;20303;-85
2023/05/05 10:24:28;;;;;;;4.50;4.20;;;;;;;;;;5017785;28;20222;-86
2023/05/05 10:26:58;;;;;;;5.15;4.72;;;;;;;;;;5016838;28;20245;-87
2023/05/05 10:29:35;;;;;;;6.13;5.18;;;;;;;;;;5017203;28;20183;-86
2023/05/05 10:32:09;;;;;;;6.10;5.55;;;;;;;;;;5016702;28;20297;-87
2023/05/05 10:34:40;;;;;;;5.72;5.15;;;;;;;;;;5016675;28;20720;-86
2023/05/05 10:37:10;;;;;;;4.15;3.85;;;;;;;;;;5016733;28;20222;-86
2023/05/05 10:39:39;;;;;;;3.38;3.15;;;;;;;;;;5017045;28;20199;-86
2023/05/05 10:42:06;;;;;;;4.45;3.45;;;;;;;;;;5017890;28;20819;-86
2023/05/05 10:44:35;;;;;;;5.72;5.22;;;;;;;;;;5018008;28;20719;-86
2023/05/05 10:47:03;;;;;;;5.43;4.93;;;;;;;;;;5017432;28;20233;-87
2023/05/05 10:49:38;;;;;;;5.50;5.03;;;;;;;;;;5017609;28;20687;-83
2023/05/05 10:52:14;;;;;;;5.72;5.32;;;;;;;;;;5017523;28;20297;-85
2023/05/05 10:54:49;;;;;;;5.22;4.72;;;;;;;;;;5017561;28;20321;-86
2023/05/05 10:57:20;;;;;;;4.93;4.53;;;;;;;;;;5017126;28;20222;-86
2023/05/05 10:59:48;;;;;;;6.63;6.03;;;;;;;;;;5016902;28;20675;-86
2023/05/05 11:02:21;;;;;;;4.13;3.83;;;;;;;;;;5016930;28;20233;-86
2023/05/05 11:05:13;;;;;;;5.45;4.95;;;;;;;;;;5017248;28;20682;-86
2023/05/05 11:07:42;;;;;;;3.58;3.33;;;;;;;;;;5017109;28;20194;-86
2023/05/05 11:10:12;;;;;;;4.25;3.95;;;;;;;;;;5017067;28;20233;-86
2023/05/05 11:13:20;;;;;;;5.30;4.60;;;;;;;;;;5016855;28;20270;-86
2023/05/05 11:15:49;;;;;;;3.50;3.30;;;;;;;;;;5016520;28;20222;-87
2023/05/05 11:18:44;;;;;;;4.53;4.13;;;;;;;;;;5016342;28;20211;-86
2023/05/05 11:21:16;;;;;;;5.45;3.90;;;;;;;;;;4981315;28;20301;-86
2023/05/05 11:23:48;;;;;;;3.17;2.97;;;;;;;;;;5017579;28;20276;-83
2023/05/05 11:26:19;;;;;;;3.70;3.40;;;;;;;;;;5017791;28;20722;-86
2023/05/05 11:29:01;;;;;;;3.97;3.67;;;;;;;;;;5017163;28;20183;-85
2023/05/05 11:31:30;;;;;;;4.95;4.55;;;;;;;;;;5017943;28;20187;-86
2023/05/05 11:34:28;;;;;;;5.47;4.68;;;;;;;;;;5017038;28;20227;-85
2023/05/05 11:37:01;;;;;;;4.80;4.45;;;;;;;;;;5017075;28;20243;-86
2023/05/05 11:39:49;;;;;;;5.78;5.28;;;;;;;;;;5017118;28;20187;-86
2023/05/05 11:42:27;;;;;;;5.53;5.00;;;;;;;;;;5016747;28;20270;-85
2023/05/05 11:44:55;;;;;;;5.68;5.18;;;;;;;;;;5016655;28;20246;-86
2023/05/05 11:47:30;;;;;;;5.60;5.20;;;;;;;;;;5016751;28;20577;-86
2023/05/05 11:49:58;;;;;;;5.72;5.30;;;;;;;;;;5017117;28;20555;-85
2023/05/05 11:52:30;;;;;;;5.82;5.32;;;;;;;;;;5017055;28;20227;-85
2023/05/05 11:55:03;;;;;;;5.68;5.18;;;;;;;;;;5016695;28;20226;-83
2023/05/05 11:57:32;;;;;;;4.85;4.45;;;;;;;;;;5017522;28;20207;-83
2023/05/05 12:00:02;;;;;;;5.28;4.45;;;;;;;;;;5017152;28;20664;-84
2023/05/05 12:02:31;;;;;;;5.30;4.85;;;;;;;;;;5016222;28;20253;-84
2023/05/05 12:04:59;;;;;;;5.78;5.28;;;;;;;;;;5014102;28;20246;-85
2023/05/05 12:07:32;;;;;;;5.97;5.22;;;;;;;;;;5014172;28;20286;-83
2023/05/05 12:10:00;;;;;;;7.93;5.68;;;;;;;;;;5015322;28;20187;-84
2023/05/05 12:12:41;;;;;;;8.90;6.78;;;;;;;;;;5015440;28;20226;-82
2023/05/05 12:15:09;;;;;;;6.68;6.18;;;;;;;;;;5014832;28;20254;-85
2023/05/05 12:17:39;;;;;;;6.95;6.25;;;;;;;;;;5013850;28;20214;-84
2023/05/05 12:20:08;;;;;;;7.03;6.32;;;;;;;;;;5014132;28;20195;-85
2023/05/05 12:22:36;;;;;;;5.32;4.82;;;;;;;;;;5013876;28;20286;-84
2023/05/05 12:25:05;;;;;;;4.90;4.50;;;;;;;;;;5013791;28;20318;-86
2023/05/05 12:27:34;;;;;;;5.22;4.72;;;;;;;;;;5013779;28;20386;-85
2023/05/05 12:30:15;;;;;;;4.68;4.25;;;;;;;;;;5013136;28;20222;-86
2023/05/05 12:32:42;;;;;;;4.10;3.58;;;;;;;;;;5013330;28;20226;-86
2023/05/05 12:35:11;;;;;;;4.20;3.90;;;;;;;;;;5013523;28;20273;-86
2023/05/05 12:37:39;;;;;;;3.90;3.60;;;;;;;;;;5013186;28;20314;-86
2023/05/05 12:40:09;;;;;;;3.00;2.80;;;;;;;;;;5013208;28;20282;-86
2023/05/05 12:42:42;;;;;;;2.70;2.50;;;;;;;;;;5013461;28;20227;-86
2023/05/05 12:45:18;;;;;;;3.58;3.28;;;;;;;;;;5013271;28;20218;-86
2023/05/05 12:47:45;;;;;;;3.03;2.78;;;;;;;;;;5013155;28;20213;-87
2023/05/05 12:50:13;;;;;;;2.65;2.45;;;;;;;;;;5013130;28;20728;-86
2023/05/05 12:52:43;;;;;;;3.63;3.33;;;;;;;;;;5013030;28;20234;-86
2023/05/05 12:55:11;;;;;;;4.03;3.72;;;;;;;;;;5012977;28;20214;-86
2023/05/05 12:57:56;;;;;;;3.20;2.90;;;;;;;;;;5015291;28;20204;-86
2023/05/05 13:00:28;;;;;;;2.95;2.75;;;;;;;;;;5022090;28;20249;-86
2023/05/05 13:02:56;;;;;;;3.13;2.92;;;;;;;;;;5019154;28;20202;-87
2023/05/05 13:05:31;;;;;;;2.50;2.30;;;;;;;;;;5013018;28;20285;-86
2023/05/05 13:07:59;;;;;;;2.65;2.45;;;;;;;;;;5013183;28;20213;-86
2023/05/05 13:10:27;;;;;;;2.85;2.65;;;;;;;;;;5013155;28;20249;-86
2023/05/05 13:12:56;;;;;;;3.53;3.22;;;;;;;;;;5012976;28;20195;-85
2023/05/05 13:15:26;;;;;;;3.13;2.92;;;;;;;;;;5012680;28;20318;-85
2023/05/05 13:17:59;;;;;;;2.92;2.72;;;;;;;;;;5013210;28;20202;-85
2023/05/05 13:20:27;;;;;;;3.15;2.85;;;;;;;;;;5013109;28;20683;-86
2023/05/05 13:22:56;;;;;;;4.22;3.92;;;;;;;;;;5012718;28;20257;-86
2023/05/05 13:25:23;;;;;;;5.30;4.88;;;;;;;;;;5012040;28;20230;-86
2023/05/05 13:27:51;;;;;;;5.60;5.20;;;;;;;;;;5012675;28;20320;-86
2023/05/05 13:30:19;;;;;;;4.60;4.20;;;;;;;;;;5012713;28;20739;-85
2023/05/05 13:32:48;;;;;;;4.65;4.35;;;;;;;;;;5012536;28;20207;-85
2023/05/05 13:35:16;;;;;;;5.80;5.30;;;;;;;;;;5012760;28;20313;-85
2023/05/05 13:37:45;;;;;;;4.25;3.95;;;;;;;;;;5012859;28;20289;-84
2023/05/05 13:40:14;;;;;;;3.67;3.38;;;;;;;;;;5012678;28;20297;-85
2023/05/05 13:42:41;;;;;;;4.13;3.72;;;;;;;;;;5014913;28;20294;-85
2023/05/05 13:45:11;;;;;;;5.45;4.65;;;;;;;;;;5017011;28;20250;-85
2023/05/05 13:47:39;;;;;;;4.05;3.75;;;;;;;;;;5016341;28;20653;-86
2023/05/05 13:50:09;;;;;;;5.65;4.32;;;;;;;;;;5016612;28;20637;-85
2023/05/05 13:52:37;;;;;;;4.30;3.97;;;;;;;;;;5016251;28;20704;-86
2023/05/05 13:55:06;;;;;;;5.43;4.93;;;;;;;;;;5016505;28;20231;-85
2023/05/05 13:57:33;;;;;;;5.45;4.95;;;;;;;;;;5016369;28;20207;-86
2023/05/05 14:00:01;;;;;;;5.05;4.47;;;;;;;;;;5016484;28;20219;-86
2023/05/05 14:02:28;;;;;;;4.68;4.28;;;;;;;;;;5016366;28;20245;-86
2023/05/05 14:04:56;;;;;;;5.32;4.85;;;;;;;;;;5016209;28;20310;-86
2023/05/05 14:07:25;;;;;;;3.75;3.45;;;;;;;;;;5015557;28;20207;-86
2023/05/05 14:09:52;;;;;;;3.42;3.13;;;;;;;;;;5016423;28;20207;-86
2023/05/05 14:12:20;;;;;;;5.50;4.57;;;;;;;;;;5015918;28;20235;-86
2023/05/05 14:14:48;;;;;;;5.32;4.93;;;;;;;;;;5016057;28;20651;-86
2023/05/05 14:17:15;;;;;;;4.88;4.43;;;;;;;;;;5016329;28;20282;-85
2023/05/05 14:19:43;;;;;;;5.85;5.35;;;;;;;;;;5016682;28;20278;-84
2023/05/05 14:22:10;;;;;;;6.47;5.72;;;;;;;;;;5016096;28;20264;-87
2023/05/05 14:24:39;;;;;;;4.50;4.07;;;;;;;;;;5015372;28;20285;-86
2023/05/05 14:27:07;;;;;;;3.58;3.28;;;;;;;;;;5016253;28;20257;-86
2023/05/05 14:29:34;;;;;;;4.60;4.20;;;;;;;;;;5016090;28;20207;-86
2023/05/05 14:32:02;;;;;;;6.88;6.28;;;;;;;;;;5016041;28;20294;-87
2023/05/05 14:34:29;;;;;;;5.85;5.35;;;;;;;;;;5015662;28;20262;-86
2023/05/05 14:36:57;;;;;;;6.45;5.95;;;;;;;;;;5015274;28;20239;-86
2023/05/05 14:39:24;;;;;;;4.38;3.97;;;;;;;;;;5015691;28;20287;-86
2023/05/05 14:41:53;;;;;;;4.43;4.10;;;;;;;;;;5015858;28;20664;-86
2023/05/05 14:44:21;;;;;;;5.68;5.18;;;;;;;;;;5015837;28;20202;-85
2023/05/05 14:46:48;;;;;;;6.18;5.60;;;;;;;;;;5016484;28;20631;-85
2023/05/05 14:49:16;;;;;;;5.82;5.32;;;;;;;;;;5016409;28;20740;-84
2023/05/05 14:51:43;;;;;;;3.60;3.33;;;;;;;;;;5015936;28;20290;-86
2023/05/05 14:54:11;;;;;;;3.50;3.30;;;;;;;;;;5014275;28;20215;-85
2023/05/05 14:56:38;;;;;;;3.50;3.30;;;;;;;;;;5015620;28;20259;-86
2023/05/05 14:59:07;;;;;;;3.92;3.63;;;;;;;;;;5014970;28;20246;-86